createdAt,value
2023-04-25T00:02:23.730Z,5.30
2023-04-25T00:07:27.287Z,5.28
2023-04-25T00:12:30.524Z,5.44
2023-04-25T00:17:35.781Z,5.34
2023-04-25T00:22:39.217Z,5.09
2023-04-25T00:27:42.835Z,5.00
2023-04-25T00:32:47.103Z,4.81
2023-04-25T00:37:50.567Z,5.03
2023-04-25T00:42:55.016Z,5.34
2023-04-25T00:47:59.361Z,5.05
2023-04-25T00:53:02.775Z,4.87
2023-04-25T00:58:05.799Z,4.83
2023-04-25T01:03:11.191Z,4.68
2023-04-25T01:08:14.844Z,4.35
2023-04-25T01:13:17.648Z,4.62
2023-04-25T01:18:21.950Z,4.77
2023-04-25T01:23:26.548Z,4.96
2023-04-25T01:28:29.938Z,4.86
2023-04-25T01:33:32.798Z,4.69
2023-04-25T01:38:37.131Z,4.54
2023-04-25T01:43:40.321Z,4.57
2023-04-25T01:48:43.157Z,4.57
2023-04-25T01:53:47.988Z,4.63
2023-04-25T01:58:51.256Z,4.50
2023-04-25T02:03:56.962Z,4.51
2023-04-25T02:09:10.853Z,4.55
2023-04-25T02:14:18.861Z,4.73
2023-04-25T02:19:41.881Z,4.65
2023-04-25T02:24:46.076Z,5.04
2023-04-25T02:29:48.935Z,4.98
2023-04-25T02:34:51.733Z,5.23
2023-04-25T02:39:55.981Z,5.51
2023-04-25T02:44:58.922Z,5.64
2023-04-25T02:50:03.233Z,5.77
2023-04-25T02:55:08.422Z,5.65
2023-04-25T03:00:15.252Z,5.67
2023-04-25T03:05:18.731Z,5.70
2023-04-25T03:10:22.933Z,5.59
2023-04-25T03:15:26.298Z,5.58
2023-04-25T03:20:29.379Z,5.44
2023-04-25T03:25:33.572Z,5.37
2023-04-25T03:30:36.350Z,5.51
2023-04-25T03:35:39.647Z,5.48
2023-04-25T03:40:44.726Z,5.48
2023-04-25T03:45:55.909Z,5.33
2023-04-25T03:51:00.241Z,5.26
2023-04-25T03:56:04.787Z,5.33
2023-04-25T04:01:10.616Z,4.96
2023-04-25T04:06:15.931Z,5.06
2023-04-25T04:11:25.050Z,4.89
2023-04-25T04:16:28.215Z,4.94
2023-04-25T04:21:31.252Z,4.86
2023-04-25T04:26:35.758Z,4.67
2023-04-25T04:32:05.805Z,4.86
2023-04-25T04:37:10.704Z,4.55
2023-04-25T04:42:15.015Z,4.71
2023-04-25T04:47:31.847Z,4.70
2023-04-25T04:52:51.858Z,5.07
2023-04-25T04:58:22.218Z,4.60
2023-04-25T05:03:34.553Z,4.90
2023-04-25T05:09:04.368Z,5.00
2023-04-25T05:14:21.278Z,4.58
2023-04-25T05:19:59.401Z,4.89
2023-04-25T05:25:31.534Z,4.96
2023-04-25T05:31:05.477Z,5.21
2023-04-25T05:36:20.602Z,5.04
2023-04-25T05:41:24.033Z,4.72
2023-04-25T05:46:46.545Z,5.47
2023-04-25T05:51:49.284Z,4.78
2023-04-25T05:57:05.064Z,5.20
2023-04-25T06:02:09.989Z,5.39
2023-04-25T06:07:15.007Z,5.35
2023-04-25T06:12:17.814Z,5.24
2023-04-25T06:17:22.758Z,5.60
2023-04-25T06:22:27.272Z,5.76
2023-04-25T06:27:30.144Z,5.32
2023-04-25T06:32:35.338Z,5.74
2023-04-25T06:37:38.264Z,5.62
2023-04-25T06:42:41.102Z,6.11
2023-04-25T06:48:23.726Z,5.23
2023-04-25T06:53:27.446Z,5.87
2023-04-25T06:58:35.785Z,6.22
2023-04-25T07:04:03.162Z,5.50
2023-04-25T07:09:09.731Z,5.44
2023-04-25T07:14:12.671Z,6.21
2023-04-25T07:19:19.013Z,6.79
2023-04-25T07:24:21.990Z,6.97
2023-04-25T07:29:26.766Z,7.59
2023-04-25T07:34:31.335Z,7.89
2023-04-25T07:39:34.727Z,6.98
2023-04-25T07:44:39.718Z,6.94
2023-04-25T07:49:46.174Z,7.58
2023-04-25T07:54:49.508Z,6.96
2023-04-25T07:59:57.698Z,7.94
2023-04-25T08:05:03.753Z,7.91
2023-04-25T08:10:08.307Z,8.16
2023-04-25T08:15:11.948Z,8.59
2023-04-25T08:20:18.068Z,9.32
2023-04-25T08:25:22.324Z,10.01
2023-04-25T08:30:25.425Z,9.38
2023-04-25T08:35:30.258Z,7.89
2023-04-25T08:40:39.428Z,7.89
2023-04-25T08:45:47.086Z,8.11
2023-04-25T08:56:21.309Z,7.61
2023-04-25T09:01:24.665Z,8.17
2023-04-25T09:06:32.867Z,6.97
2023-04-25T09:11:36.855Z,6.86
2023-04-25T09:17:01.291Z,7.06
2023-04-25T09:22:26.276Z,8.21
2023-04-25T09:27:29.436Z,7.25
2023-04-25T09:32:49.815Z,8.61
2023-04-25T09:37:54.268Z,8.84
2023-04-25T09:43:21.840Z,8.59
2023-04-25T09:48:28.338Z,7.20
2023-04-25T09:53:36.317Z,7.16
2023-04-25T09:58:58.409Z,6.50
2023-04-25T10:04:03.583Z,8.16
2023-04-25T10:09:36.050Z,8.74
2023-04-25T10:14:38.911Z,8.15
2023-04-25T10:19:41.980Z,7.30
2023-04-25T10:24:48.344Z,7.32
2023-04-25T10:30:03.506Z,7.93
2023-04-25T10:35:14.250Z,7.78
2023-04-25T10:40:24.069Z,8.08
2023-04-25T10:45:27.948Z,8.69
2023-04-25T10:50:39.946Z,9.02
2023-04-25T10:55:53.505Z,9.10
2023-04-25T11:00:57.876Z,8.54
2023-04-25T11:06:03.047Z,8.03
2023-04-25T11:11:07.501Z,7.60
2023-04-25T11:16:12.986Z,8.18
2023-04-25T11:21:16.604Z,7.97
2023-04-25T11:26:21.289Z,8.50
2023-04-25T11:31:24.226Z,8.96
2023-04-25T11:36:27.956Z,9.21
2023-04-25T11:41:32.740Z,10.45
2023-04-25T11:46:36.637Z,10.97
2023-04-25T11:51:44.162Z,9.89
2023-04-25T11:56:48.517Z,8.98
2023-04-25T12:01:52.337Z,8.16
2023-04-25T12:06:57.015Z,8.53
2023-04-25T12:12:04.085Z,8.79
2023-04-25T12:17:09.172Z,9.55
2023-04-25T12:22:23.593Z,9.05
2023-04-25T12:27:28.229Z,11.46
2023-04-25T12:32:31.718Z,13.12
2023-04-25T12:37:34.564Z,11.65
2023-04-25T12:42:38.718Z,10.75
2023-04-25T12:47:41.534Z,9.89
2023-04-25T12:52:44.314Z,11.72
2023-04-25T12:57:48.711Z,10.77
2023-04-25T13:02:51.682Z,9.62
2023-04-25T13:07:54.615Z,9.34
2023-04-25T13:12:59.063Z,9.36
2023-04-25T13:18:02.052Z,9.67
2023-04-25T13:23:04.894Z,9.13
2023-04-25T13:28:09.273Z,6.70
2023-04-25T13:33:26.149Z,5.14
2023-04-25T13:38:29.003Z,3.78
2023-04-25T13:43:34.887Z,4.23
2023-04-25T13:48:37.911Z,5.65
2023-04-25T13:53:40.742Z,6.23
2023-04-25T13:58:44.944Z,7.69
2023-04-25T14:03:47.825Z,9.82
2023-04-25T14:08:51.014Z,10.47
2023-04-25T14:13:55.122Z,11.37
2023-04-25T14:18:58.875Z,10.96
2023-04-25T14:24:01.773Z,11.65
2023-04-25T14:29:07.235Z,12.30
2023-04-25T14:34:10.169Z,11.09
2023-04-25T14:39:13.463Z,10.57
2023-04-25T14:44:17.739Z,10.79
2023-04-25T14:49:21.016Z,12.32
2023-04-25T14:54:23.889Z,12.76
2023-04-25T14:59:28.056Z,10.44
2023-04-25T15:04:30.972Z,10.67
2023-04-25T15:09:34.275Z,10.14
2023-04-25T15:14:38.563Z,10.36
2023-04-25T15:19:41.335Z,10.30
2023-04-25T15:24:44.136Z,10.26
2023-04-25T15:29:48.288Z,10.18
2023-04-25T15:34:51.924Z,10.25
2023-04-25T15:40:04.810Z,11.37
2023-04-25T15:45:11.280Z,12.52
2023-04-25T15:50:15.969Z,12.64
2023-04-25T15:55:21.126Z,12.26
2023-04-25T16:00:25.355Z,11.57
2023-04-25T16:05:28.373Z,11.01
2023-04-25T16:10:31.235Z,9.80
2023-04-25T16:15:35.796Z,9.98
2023-04-25T16:20:38.734Z,10.10
2023-04-25T16:25:43.014Z,9.08
2023-04-25T16:30:47.388Z,8.20
2023-04-25T16:35:52.419Z,7.30
2023-04-25T16:40:55.354Z,7.58
2023-04-25T16:45:59.490Z,7.13
2023-04-25T16:51:02.298Z,7.04
2023-04-25T16:56:05.477Z,6.37
2023-04-25T17:01:09.670Z,6.40
2023-04-25T17:06:12.482Z,6.90
2023-04-25T17:11:15.343Z,8.06
2023-04-25T17:16:23.404Z,8.78
2023-04-25T17:21:26.198Z,11.22
2023-04-25T17:26:29.145Z,10.06
2023-04-25T17:31:33.529Z,8.75
2023-04-25T17:36:36.417Z,8.82
2023-04-25T17:41:39.268Z,8.75
2023-04-25T17:46:43.652Z,8.26
2023-04-25T17:51:46.560Z,8.20
2023-04-25T17:56:49.605Z,7.61
2023-04-25T18:01:53.822Z,7.67
2023-04-25T18:06:56.753Z,7.14
2023-04-25T18:12:00.153Z,7.06
2023-04-25T18:17:07.100Z,7.01
2023-04-25T18:22:09.944Z,6.61
2023-04-25T18:27:12.744Z,6.58
2023-04-25T18:32:17.099Z,6.58
2023-04-25T18:37:20.969Z,6.36
2023-04-25T18:42:23.741Z,6.46
2023-04-25T18:47:27.955Z,6.39
2023-04-25T18:52:30.821Z,6.21
2023-04-25T18:57:34.408Z,6.25
2023-04-25T19:02:38.851Z,5.85
2023-04-25T19:07:42.273Z,5.93
2023-04-25T19:12:44.952Z,5.84
2023-04-25T19:17:49.160Z,5.62
2023-04-25T19:22:53.216Z,5.75
2023-04-25T19:27:57.296Z,5.63
2023-04-25T19:33:01.591Z,5.38
2023-04-25T19:38:04.604Z,5.30
2023-04-25T19:43:07.419Z,5.41
2023-04-25T19:48:12.351Z,5.12
2023-04-25T19:53:15.052Z,5.25
2023-04-25T19:58:17.735Z,5.21
2023-04-25T20:03:22.074Z,4.70
2023-04-25T20:08:26.143Z,4.76
2023-04-25T20:13:29.183Z,5.19
2023-04-25T20:18:33.243Z,5.01
2023-04-25T20:23:36.032Z,5.30
2023-04-25T20:28:38.849Z,5.31
2023-04-25T20:33:43.746Z,4.97
2023-04-25T20:38:46.831Z,4.97
2023-04-25T20:43:50.107Z,4.76
2023-04-25T20:48:54.524Z,4.67
2023-04-25T20:53:58.111Z,4.72
2023-04-25T20:59:00.858Z,4.48
2023-04-25T21:04:06.271Z,4.74
2023-04-25T21:09:10.031Z,4.65
2023-04-25T21:14:12.921Z,4.84
2023-04-25T21:19:17.507Z,3.99
2023-04-25T21:24:21.758Z,4.46
2023-04-25T21:29:24.521Z,4.23
2023-04-25T21:34:28.744Z,4.45
2023-04-25T21:39:31.603Z,3.99
2023-04-25T21:44:34.379Z,4.04
2023-04-25T21:49:38.496Z,3.96
2023-04-25T21:54:41.294Z,3.74
2023-04-25T21:59:44.355Z,3.87
2023-04-25T22:04:49.041Z,3.92
2023-04-25T22:09:55.505Z,3.63
2023-04-25T22:14:58.646Z,3.75
2023-04-25T22:20:09.631Z,3.51
2023-04-25T22:25:12.971Z,3.56
2023-04-25T22:30:16.307Z,3.68
2023-04-25T22:35:20.467Z,3.32
2023-04-25T22:40:23.269Z,3.65
2023-04-25T22:45:26.119Z,3.60
2023-04-25T22:50:30.368Z,3.64
2023-04-25T22:55:33.144Z,3.49
2023-04-25T23:00:35.946Z,3.53
2023-04-25T23:05:40.145Z,3.31
2023-04-25T23:10:42.924Z,3.28
2023-04-25T23:15:45.678Z,2.94
2023-04-25T23:20:49.805Z,2.80
2023-04-25T23:25:53.250Z,2.96
2023-04-25T23:30:56.156Z,2.97
2023-04-25T23:36:00.453Z,2.91
2023-04-25T23:41:03.272Z,2.91
2023-04-25T23:46:06.317Z,2.70
2023-04-25T23:51:10.561Z,2.94
2023-04-25T23:56:13.343Z,3.20
